Time;durP1;ratioP1;P1;durP2;ratioP2;P2;SDS_P1;SDS_P2;PMS_P1;PMS_P2;Temp;Humidity;BMP_temperature;BMP_pressure;BME280_temperature;BME280_humidity;BME280_pressure;Samples;Min_cycle;Max_cycle;Signal;HPM_P1;HPM_P2
2021/01/08 00:01:56;;;;;;;32.38;22.55;;;2.40;71.20;;;;;;5043723;28;20029;-76
2021/01/08 00:04:22;;;;;;;27.15;21.95;;;2.40;71.20;;;;;;5043635;28;20059;-76
2021/01/08 00:06:54;;;;;;;30.00;21.70;;;2.40;71.20;;;;;;5044153;28;20140;-76
2021/01/08 00:09:20;;;;;;;28.55;22.42;;;2.50;71.40;;;;;;5043591;28;20067;-75
2021/01/08 00:11:46;;;;;;;31.75;21.77;;;2.40;71.20;;;;;;5043654;28;20033;-75
2021/01/08 00:14:12;;;;;;;28.48;21.88;;;2.50;71.40;;;;;;5043643;28;20080;-75
2021/01/08 00:16:38;;;;;;;29.63;23.60;;;2.50;71.40;;;;;;5044062;28;20219;-75
2021/01/08 00:19:04;;;;;;;27.30;21.52;;;2.50;71.40;;;;;;5046056;28;20033;-74
2021/01/08 00:21:38;;;;;;;31.38;21.33;;;2.50;71.40;;;;;;5047469;28;20431;-74
2021/01/08 00:24:05;;;;;;;30.33;22.67;;;2.50;71.40;;;;;;5046918;28;20534;-74
2021/01/08 00:26:31;;;;;;;26.27;20.33;;;2.50;71.30;;;;;;5029446;28;20054;-74
2021/01/08 00:28:57;;;;;;;24.83;20.25;;;2.50;71.30;;;;;;5045851;28;20076;-74
2021/01/08 00:31:24;;;;;;;24.80;20.92;;;2.50;71.30;;;;;;5046880;28;20064;-74
2021/01/08 00:33:50;;;;;;;29.02;22.63;;;2.50;71.30;;;;;;5046998;28;20816;-75
2021/01/08 00:36:16;;;;;;;26.95;20.95;;;2.50;71.30;;;;;;5047078;28;20400;-75
2021/01/08 00:38:42;;;;;;;30.35;20.90;;;2.50;71.30;;;;;;5047468;28;20029;-75
2021/01/08 00:41:08;;;;;;;30.67;20.23;;;2.50;71.30;;;;;;5047304;28;20586;-75
2021/01/08 00:43:34;;;;;;;25.60;21.20;;;2.50;71.30;;;;;;5047033;28;20028;-74
2021/01/08 00:46:00;;;;;;;27.45;20.60;;;2.50;71.30;;;;;;5045452;28;20040;-75
2021/01/08 00:48:26;;;;;;;26.60;20.20;;;2.50;71.30;;;;;;5046745;28;20349;-75
2021/01/08 00:50:59;;;;;;;25.52;20.20;;;2.60;71.50;;;;;;5045504;28;20041;-74
2021/01/08 00:53:26;;;;;;;;;;;2.50;71.30;;;;;;5046400;28;20535;-82
2021/01/08 00:55:52;;;;;;;27.63;19.27;;;2.50;71.30;;;;;;5046638;28;19909;-75
2021/01/08 00:58:22;;;;;;;28.10;19.98;;;2.50;71.20;;;;;;5045079;28;20072;-77
2021/01/08 01:00:50;;;;;;;26.30;20.20;;;2.60;71.40;;;;;;5046504;28;20487;-76
2021/01/08 01:03:16;;;;;;;26.80;20.98;;;2.60;71.40;;;;;;5046511;28;20033;-76
2021/01/08 01:05:41;;;;;;;26.38;20.02;;;2.50;71.20;;;;;;5046563;28;20456;-74
2021/01/08 01:08:07;;;;;;;25.33;20.48;;;2.60;71.50;;;;;;5044804;28;20467;-75
2021/01/08 01:10:33;;;;;;;25.85;20.42;;;2.60;71.40;;;;;;5046608;28;20107;-74
2021/01/08 01:12:59;;;;;;;24.27;19.58;;;2.50;71.30;;;;;;5044882;28;20524;-74
2021/01/08 01:15:25;;;;;;;29.13;20.70;;;2.60;71.40;;;;;;5045965;28;20116;-73
2021/01/08 01:17:51;;;;;;;24.67;19.15;;;2.60;71.40;;;;;;5044750;28;20033;-74
2021/01/08 01:20:17;;;;;;;27.48;20.23;;;2.60;71.40;;;;;;5045726;28;20033;-73
2021/01/08 01:22:43;;;;;;;24.75;18.65;;;2.60;71.40;;;;;;5044475;28;20079;-74
2021/01/08 01:25:09;;;;;;;23.27;20.45;;;2.60;71.40;;;;;;5045880;28;20036;-74
2021/01/08 01:27:38;;;;;;;29.35;21.23;;;2.60;71.40;;;;;;5044559;28;20120;-73
2021/01/08 01:30:09;;;;;;;27.95;19.85;;;2.60;71.40;;;;;;5044003;28;20143;-74
2021/01/08 01:32:35;;;;;;;23.05;18.25;;;2.60;71.40;;;;;;5042246;28;20081;-74
2021/01/08 01:35:01;;;;;;;24.77;19.70;;;2.60;71.40;;;;;;5045916;28;20431;-75
2021/01/08 01:37:27;;;;;;;22.80;18.35;;;2.60;71.40;;;;;;5044584;28;20124;-73
2021/01/08 01:39:53;;;;;;;24.48;18.48;;;2.60;71.40;;;;;;5044486;28;20171;-74
2021/01/08 01:42:19;;;;;;;35.67;21.73;;;2.60;71.40;;;;;;5045974;28;20119;-74
2021/01/08 01:44:45;;;;;;;26.48;19.50;;;2.70;71.60;;;;;;5046156;28;20456;-74
2021/01/08 01:47:11;;;;;;;24.20;19.08;;;2.70;71.60;;;;;;5043978;28;20107;-73
2021/01/08 01:49:37;;;;;;;22.50;18.00;;;2.70;71.60;;;;;;5045350;28;20472;-74
2021/01/08 01:52:03;;;;;;;23.27;18.95;;;2.70;71.60;;;;;;5044214;28;20025;-76
2021/01/08 01:54:29;;;;;;;27.83;20.15;;;2.60;71.40;;;;;;5044659;28;20032;-74
2021/01/08 01:56:56;;;;;;;24.95;19.33;;;2.70;71.60;;;;;;5045854;28;20037;-74
2021/01/08 01:59:22;;;;;;;28.55;17.77;;;2.70;71.60;;;;;;5045358;28;20429;-75
2021/01/08 02:01:48;;;;;;;24.70;19.08;;;2.70;71.60;;;;;;5045203;28;20504;-75
2021/01/08 02:04:16;;;;;;;26.33;19.27;;;2.60;71.40;;;;;;5045893;28;20482;-74
2021/01/08 02:06:42;;;;;;;24.63;18.60;;;2.70;71.60;;;;;;5045611;28;20033;-75
2021/01/08 02:09:13;;;;;;;22.20;18.27;;;2.70;71.60;;;;;;5044999;28;20028;-74
2021/01/08 02:11:45;;;;;;;22.95;18.52;;;2.70;71.60;;;;;;5045368;28;20041;-74
2021/01/08 02:14:32;;;;;;;23.58;18.60;;;2.70;71.60;;;;;;5045258;28;20036;-74
2021/01/08 02:17:00;;;;;;;23.90;18.85;;;2.70;71.60;;;;;;5044957;28;20047;-73
2021/01/08 02:19:41;;;;;;;23.77;18.85;;;2.70;71.50;;;;;;5045338;28;20283;-74
2021/01/08 02:22:21;;;;;;;27.05;19.05;;;2.70;71.50;;;;;;5043143;28;20036;-73
2021/01/08 02:25:10;;;;;;;24.88;19.50;;;2.70;71.50;;;;;;5043368;28;20063;-74
2021/01/08 02:27:39;;;;;;;23.00;18.90;;;2.70;71.50;;;;;;5045355;28;20448;-74
2021/01/08 02:30:06;;;;;;;24.13;18.52;;;2.70;71.50;;;;;;5043238;28;20476;-74
2021/01/08 02:32:33;;;;;;;23.10;19.00;;;2.70;71.50;;;;;;5046212;28;20039;-75
2021/01/08 02:35:01;;;;;;;24.08;20.10;;;2.70;71.50;;;;;;5046114;28;20029;-74
2021/01/08 02:37:29;;;;;;;26.75;19.17;;;2.70;71.50;;;;;;5044972;28;20032;-76
2021/01/08 02:39:55;;;;;;;24.45;18.63;;;2.70;71.50;;;;;;5044699;28;20079;-75
2021/01/08 02:42:21;;;;;;;23.08;18.95;;;2.70;71.50;;;;;;5044711;28;20330;-75
2021/01/08 02:44:47;;;;;;;23.60;19.27;;;2.70;71.60;;;;;;5046390;28;20560;-74
2021/01/08 02:47:19;;;;;;;25.13;18.38;;;2.70;71.60;;;;;;5046501;28;20123;-75
2021/01/08 02:49:44;;;;;;;24.30;18.20;;;2.70;71.60;;;;;;5048154;28;20041;-75
2021/01/08 02:52:11;;;;;;;26.30;19.48;;;2.70;71.60;;;;;;5048154;28;20036;-75
2021/01/08 02:54:37;;;;;;;23.90;18.70;;;2.70;71.60;;;;;;5047599;28;20048;-77
2021/01/08 02:57:05;;;;;;;26.42;19.13;;;2.70;71.60;;;;;;5049550;28;20092;-76
2021/01/08 02:59:33;;;;;;;28.65;17.98;;;2.70;71.60;;;;;;5049838;28;20058;-75
2021/01/08 03:02:00;;;;;;;26.65;20.15;;;2.70;71.60;;;;;;5049398;28;20089;-74
2021/01/08 03:04:26;;;;;;;24.17;19.48;;;2.80;71.80;;;;;;5049236;28;20481;-74
2021/01/08 03:06:53;;;;;;;22.38;17.30;;;2.70;72.10;;;;;;5049277;28;20326;-75
2021/01/08 03:09:19;;;;;;;25.10;18.83;;;2.80;71.80;;;;;;5049123;28;20048;-75
2021/01/08 03:11:58;;;;;;;25.30;18.88;;;2.70;71.60;;;;;;5049291;28;20033;-74
2021/01/08 03:14:25;;;;;;;23.58;18.40;;;2.70;71.60;;;;;;5048880;28;20098;-75
2021/01/08 03:16:51;;;;;;;24.35;18.25;;;2.70;71.60;;;;;;5049675;28;20090;-74
2021/01/08 03:19:17;;;;;;;19.33;17.33;;;2.70;71.60;;;;;;5049095;28;20125;-75
2021/01/08 03:21:43;;;;;;;24.42;19.00;;;2.80;71.80;;;;;;5049347;28;20033;-75
2021/01/08 03:24:11;;;;;;;22.58;17.58;;;2.80;71.80;;;;;;5048773;28;20511;-75
2021/01/08 03:26:37;;;;;;;23.75;18.05;;;2.80;71.80;;;;;;5049366;28;20738;-74
2021/01/08 03:29:03;;;;;;;20.90;17.70;;;2.80;71.70;;;;;;5047765;28;20056;-74
2021/01/08 03:31:29;;;;;;;21.27;17.10;;;2.80;71.70;;;;;;5048973;28;20049;-74
2021/01/08 03:33:55;;;;;;;22.48;16.88;;;2.80;71.70;;;;;;5049011;28;20116;-74
2021/01/08 03:36:21;;;;;;;25.95;18.23;;;2.80;71.70;;;;;;5049183;28;20153;-73
2021/01/08 03:38:47;;;;;;;21.80;16.80;;;2.80;71.70;;;;;;5049013;28;20029;-74
2021/01/08 03:41:13;;;;;;;20.27;16.40;;;2.80;71.70;;;;;;5049251;28;20083;-74
2021/01/08 03:43:39;;;;;;;18.60;16.60;;;2.80;71.80;;;;;;5049039;28;20493;-74
2021/01/08 03:46:06;;;;;;;22.48;17.70;;;2.80;71.70;;;;;;5048907;28;20068;-74
2021/01/08 03:48:33;;;;;;;24.15;19.20;;;2.80;71.80;;;;;;5048500;28;20521;-73
2021/01/08 03:51:00;;;;;;;23.73;17.83;;;2.80;71.80;;;;;;5049089;28;20090;-73
2021/01/08 03:53:26;;;;;;;20.75;17.50;;;2.80;71.80;;;;;;5050503;28;20041;-75
2021/01/08 03:55:52;;;;;;;23.30;17.52;;;2.80;71.80;;;;;;5052757;28;20124;-75
2021/01/08 03:58:18;;;;;;;23.08;16.75;;;2.80;71.80;;;;;;5052619;28;20032;-76
2021/01/08 04:00:43;;;;;;;25.20;18.13;;;2.80;71.80;;;;;;5052849;28;20025;-74
2021/01/08 04:03:09;;;;;;;23.20;17.73;;;2.80;71.80;;;;;;5053072;28;20116;-74
2021/01/08 04:05:35;;;;;;;21.13;17.45;;;2.80;71.80;;;;;;5052195;28;20614;-74
2021/01/08 04:08:01;;;;;;;19.60;16.60;;;2.80;71.80;;;;;;5052658;28;20025;-74
2021/01/08 04:10:27;;;;;;;24.13;17.52;;;2.80;71.80;;;;;;5052623;28;20044;-74
2021/01/08 04:12:53;;;;;;;21.35;17.35;;;2.80;71.80;;;;;;5052275;28;20271;-74
2021/01/08 04:15:19;;;;;;;22.83;18.23;;;2.80;71.80;;;;;;5052551;28;20029;-74
2021/01/08 04:17:45;;;;;;;21.40;17.83;;;2.80;71.80;;;;;;5052308;28;20036;-74
2021/01/08 04:20:12;;;;;;;25.15;17.88;;;2.80;71.80;;;;;;5052369;28;20064;-74
2021/01/08 04:22:37;;;;;;;25.45;19.17;;;2.80;71.80;;;;;;5051903;28;20322;-74
2021/01/08 04:25:04;;;;;;;20.73;17.40;;;2.80;71.80;;;;;;5051907;28;20035;-75
2021/01/08 04:27:30;;;;;;;20.92;17.50;;;2.80;71.80;;;;;;5052156;28;20055;-74
2021/01/08 04:29:56;;;;;;;25.00;17.85;;;2.80;71.80;;;;;;5050262;28;20033;-74
2021/01/08 04:32:22;;;;;;;20.70;17.00;;;2.90;71.90;;;;;;5052031;28;20082;-74
2021/01/08 04:34:48;;;;;;;22.85;17.98;;;2.80;71.80;;;;;;5052136;28;20021;-74
2021/01/08 04:37:14;;;;;;;20.50;16.27;;;2.80;71.70;;;;;;5052601;28;20049;-74
2021/01/08 04:39:40;;;;;;;24.55;18.70;;;2.80;71.80;;;;;;5051615;28;20124;-76
2021/01/08 04:42:06;;;;;;;22.02;17.77;;;2.80;71.80;;;;;;5051702;28;20087;-75
2021/01/08 04:44:32;;;;;;;22.38;18.38;;;2.80;71.80;;;;;;5051799;28;20029;-75
2021/01/08 04:46:58;;;;;;;20.65;17.33;;;2.80;71.80;;;;;;5051568;28;20040;-75
2021/01/08 04:49:24;;;;;;;22.90;17.52;;;2.80;71.80;;;;;;5051851;28;20121;-75
2021/01/08 04:51:51;;;;;;;21.52;16.95;;;2.90;71.90;;;;;;5051033;28;20044;-75
2021/01/08 04:54:17;;;;;;;19.92;16.77;;;2.80;71.80;;;;;;5051139;28;20074;-76
2021/01/08 04:56:46;;;;;;;21.88;16.92;;;2.80;71.70;;;;;;5051079;28;20037;-76
2021/01/08 04:59:12;;;;;;;22.13;16.75;;;2.80;71.80;;;;;;5051408;28;20357;-76
2021/01/08 05:01:38;;;;;;;23.35;18.02;;;2.80;71.80;;;;;;5051593;28;20056;-76
2021/01/08 05:04:05;;;;;;;21.48;17.92;;;2.90;72.00;;;;;;5051326;28;20115;-77
2021/01/08 05:06:32;;;;;;;19.02;16.80;;;2.90;71.90;;;;;;5051427;28;20025;-75
2021/01/08 05:08:58;;;;;;;23.23;17.35;;;2.80;71.70;;;;;;5051372;28;20155;-76
2021/01/08 05:11:26;;;;;;;22.42;17.05;;;2.90;71.90;;;;;;5051340;28;20183;-75
2021/01/08 05:13:56;;;;;;;22.70;17.52;;;2.90;71.90;;;;;;5049939;28;20040;-76
2021/01/08 05:16:25;;;;;;;21.55;16.45;;;2.90;71.90;;;;;;5050001;28;20072;-75
2021/01/08 05:18:51;;;;;;;22.45;16.88;;;2.80;71.70;;;;;;5049970;28;20451;-75
2021/01/08 05:21:19;;;;;;;23.80;16.42;;;2.80;71.80;;;;;;5050017;28;20029;-76
2021/01/08 05:23:47;;;;;;;21.98;16.85;;;2.90;72.00;;;;;;5050056;28;20423;-76
2021/01/08 05:26:14;;;;;;;23.67;17.83;;;2.80;71.80;;;;;;5051300;28;20499;-75
2021/01/08 05:29:04;;;;;;;19.58;16.58;;;2.80;71.80;;;;;;5051380;28;20029;-75
2021/01/08 05:31:32;;;;;;;26.27;17.23;;;2.80;71.80;;;;;;5051253;28;20044;-76
2021/01/08 05:33:58;;;;;;;21.55;16.80;;;2.90;71.90;;;;;;5050906;28;20337;-76
2021/01/08 05:36:25;;;;;;;19.10;15.77;;;2.80;71.70;;;;;;5050796;28;20033;-76
2021/01/08 05:38:53;;;;;;;21.80;16.65;;;2.80;71.80;;;;;;5051345;28;20477;-75
2021/01/08 05:41:22;;;;;;;20.70;16.77;;;2.80;71.80;;;;;;5049544;28;20033;-76
2021/01/08 05:43:49;;;;;;;23.55;15.55;;;2.80;71.80;;;;;;5050625;28;20044;-77
2021/01/08 05:46:25;;;;;;;22.83;17.35;;;2.80;71.80;;;;;;5050380;28;20115;-76
2021/01/08 05:48:53;;;;;;;24.50;17.27;;;2.80;71.90;;;;;;5032657;28;20072;-76
2021/01/08 05:51:21;;;;;;;25.00;17.90;;;2.80;71.90;;;;;;5027414;28;20430;-75
2021/01/08 05:53:49;;;;;;;20.17;15.50;;;2.80;72.00;;;;;;5026753;28;20026;-75
2021/01/08 05:56:16;;;;;;;22.27;16.25;;;2.80;71.90;;;;;;5046189;28;20127;-75
2021/01/08 05:58:42;;;;;;;20.33;16.00;;;2.80;71.90;;;;;;5046666;28;20512;-75
2021/01/08 06:01:08;;;;;;;17.55;14.95;;;2.80;71.90;;;;;;5046844;28;20029;-78
2021/01/08 06:03:37;;;;;;;19.98;15.20;;;2.80;71.90;;;;;;5044179;28;20033;-76
2021/01/08 06:06:03;;;;;;;23.38;17.92;;;2.80;71.90;;;;;;5043880;28;20116;-73
2021/01/08 06:08:32;;;;;;;22.27;15.30;;;2.80;71.90;;;;;;5044520;28;20025;-74
2021/01/08 06:11:00;;;;;;;21.45;15.98;;;2.80;71.90;;;;;;5043415;28;20132;-75
2021/01/08 06:13:31;;;;;;;19.20;14.70;;;2.80;71.90;;;;;;5044805;28;20021;-78
2021/01/08 06:15:57;;;;;;;21.95;17.27;;;2.70;71.80;;;;;;5042805;28;20057;-80
2021/01/08 06:18:26;;;;;;;23.30;17.00;;;2.80;72.00;;;;;;5043091;28;20083;-75
2021/01/08 06:20:55;;;;;;;22.30;15.25;;;2.80;72.10;;;;;;5044645;28;20037;-76
2021/01/08 06:23:47;;;;;;;23.60;16.80;;;2.80;72.10;;;;;;5044171;28;20510;-77
2021/01/08 06:26:17;;;;;;;24.45;15.93;;;2.80;72.00;;;;;;5043538;28;20044;-78
2021/01/08 06:28:52;;;;;;;23.98;17.75;;;2.80;72.00;;;;;;5042653;28;20281;-77
2021/01/08 06:31:21;;;;;;;24.67;17.13;;;2.80;72.00;;;;;;5043345;28;20469;-77
2021/01/08 06:33:51;;;;;;;25.00;17.83;;;2.80;71.90;;;;;;5045014;28;20024;-77
2021/01/08 06:36:20;;;;;;;24.42;17.40;;;2.80;71.90;;;;;;5043061;28;20033;-74
2021/01/08 06:38:49;;;;;;;26.55;17.63;;;2.80;72.00;;;;;;5044661;28;20449;-75
2021/01/08 06:41:17;;;;;;;22.75;16.83;;;2.80;72.00;;;;;;5044368;28;20082;-76
2021/01/08 06:43:48;;;;;;;21.90;17.50;;;2.80;72.00;;;;;;5039825;28;20110;-75
2021/01/08 06:46:31;;;;;;;22.25;17.13;;;2.80;72.00;;;;;;5041912;28;20059;-75
2021/01/08 06:49:03;;;;;;;23.08;17.30;;;2.80;72.00;;;;;;5040226;28;20045;-74
2021/01/08 06:51:31;;;;;;;23.50;18.20;;;2.70;71.90;;;;;;5043591;28;20068;-73
2021/01/08 06:53:59;;;;;;;21.95;18.10;;;2.80;72.00;;;;;;5043145;28;20025;-75
2021/01/08 06:56:33;;;;;;;25.20;17.45;;;2.80;72.10;;;;;;5043813;28;20591;-72
2021/01/08 06:59:00;;;;;;;21.42;16.40;;;2.80;72.10;;;;;;5043619;28;20082;-75
2021/01/08 07:01:47;;;;;;;30.23;19.58;;;2.70;71.90;;;;;;5043182;28;20071;-75
2021/01/08 07:04:13;;;;;;;23.58;18.17;;;2.70;72.00;;;;;;5041883;28;20406;-74
2021/01/08 07:06:40;;;;;;;23.10;16.55;;;2.70;72.00;;;;;;5040474;28;20036;-78
2021/01/08 07:09:07;;;;;;;23.42;16.38;;;2.80;72.10;;;;;;5034159;28;20030;-74
2021/01/08 07:11:35;;;;;;;30.02;17.98;;;2.70;72.00;;;;;;5005989;28;20484;-76
2021/01/08 07:14:13;;;;;;;25.38;17.73;;;2.70;72.00;;;;;;5036892;28;20045;-73
2021/01/08 07:16:43;;;;;;;22.52;16.50;;;2.70;72.00;;;;;;5043434;28;20033;-79
2021/01/08 07:19:11;;;;;;;22.52;16.50;;;2.70;72.00;;;;;;5044039;28;20112;-78
2021/01/08 07:21:52;;;;;;;24.85;17.55;;;2.70;72.00;;;;;;5043774;28;20140;-77
2021/01/08 07:24:38;;;;;;;26.75;18.80;;;2.70;72.00;;;;;;5042904;28;20032;-77
2021/01/08 07:27:24;;;;;;;24.25;19.38;;;2.80;72.20;;;;;;5042073;28;20087;-77
2021/01/08 07:30:02;;;;;;;24.83;17.15;;;2.80;72.20;;;;;;5047096;28;20481;-79
2021/01/08 07:32:35;;;;;;;24.38;16.48;;;2.80;72.20;;;;;;5046896;28;20029;-75
2021/01/08 07:35:27;;;;;;;23.52;17.63;;;2.80;72.20;;;;;;5045144;28;20024;-77
2021/01/08 07:38:01;;;;;;;25.15;18.20;;;2.80;72.10;;;;;;5045020;28;20086;-77
2021/01/08 07:40:32;;;;;;;27.90;18.85;;;2.80;72.10;;;;;;5046823;28;20163;-76
2021/01/08 07:42:59;;;;;;;23.35;18.13;;;2.80;72.10;;;;;;5039225;28;20430;-76
2021/01/08 07:45:52;;;;;;;23.58;17.95;;;2.80;72.10;;;;;;5046086;28;20025;-76
2021/01/08 07:48:24;;;;;;;23.65;17.13;;;2.80;72.10;;;;;;5021042;28;743319;-77
2021/01/08 07:50:57;;;;;;;28.88;20.00;;;2.80;72.10;;;;;;5047631;28;20045;-77
2021/01/08 07:53:44;;;;;;;23.05;17.98;;;2.80;72.10;;;;;;5045374;28;20036;-77
2021/01/08 07:56:17;;;;;;;24.48;18.20;;;2.90;72.30;;;;;;5046623;28;20611;-77
2021/01/08 07:58:45;;;;;;;26.95;18.95;;;2.90;72.30;;;;;;5047463;28;20457;-77
2021/01/08 08:01:13;;;;;;;27.60;19.02;;;2.80;72.10;;;;;;5029321;28;20025;-76
2021/01/08 08:03:40;;;;;;;29.17;19.95;;;2.90;72.20;;;;;;5047198;28;20035;-77
2021/01/08 08:06:08;;;;;;;24.90;17.65;;;2.80;72.10;;;;;;5047586;28;20429;-77
2021/01/08 08:08:40;;;;;;;27.30;18.63;;;2.80;72.10;;;;;;5047551;28;20079;-77
2021/01/08 08:11:11;;;;;;;24.83;18.15;;;2.90;72.30;;;;;;5047305;28;20045;-76
2021/01/08 08:13:37;;;;;;;27.83;20.05;;;2.90;72.30;;;;;;5045728;28;20033;-76
2021/01/08 08:16:03;;;;;;;26.95;20.30;;;2.90;72.30;;;;;;5047123;28;20102;-76
2021/01/08 08:18:30;;;;;;;25.95;19.38;;;2.90;72.30;;;;;;5047213;28;20419;-76
2021/01/08 08:21:10;;;;;;;26.48;17.90;;;2.90;72.30;;;;;;5047159;28;20025;-75
2021/01/08 08:23:37;;;;;;;27.60;18.90;;;2.90;72.30;;;;;;5045209;28;20698;-76
2021/01/08 08:26:04;;;;;;;34.40;18.90;;;2.90;72.30;;;;;;5045061;28;20560;-76
2021/01/08 08:28:30;;;;;;;29.40;19.65;;;2.90;72.30;;;;;;5045924;28;20131;-76
2021/01/08 08:30:56;;;;;;;27.73;19.75;;;2.90;72.30;;;;;;5046422;28;20060;-76
2021/01/08 08:33:23;;;;;;;25.52;17.27;;;2.90;72.30;;;;;;5047329;28;20065;-76
2021/01/08 08:35:52;;;;;;;30.17;20.90;;;2.90;72.30;;;;;;5046965;28;20029;-77
2021/01/08 08:38:18;;;;;;;26.35;20.27;;;2.90;72.30;;;;;;5045799;28;20040;-76
2021/01/08 08:40:44;;;;;;;25.08;18.67;;;3.00;72.50;;;;;;5045037;28;20079;-77
2021/01/08 08:43:22;;;;;;;27.13;20.02;;;3.00;72.50;;;;;;5046606;28;20029;-76
2021/01/08 08:45:48;;;;;;;24.50;18.35;;;3.00;72.50;;;;;;5045561;28;20337;-75
2021/01/08 08:48:19;;;;;;;25.23;18.75;;;3.00;72.50;;;;;;5046548;28;20095;-76
2021/01/08 08:50:46;;;;;;;27.17;19.83;;;3.00;72.50;;;;;;5046316;28;20108;-76
2021/01/08 08:53:15;;;;;;;30.40;19.55;;;3.10;72.70;;;;;;5046596;28;20032;-80
2021/01/08 08:55:41;;;;;;;27.88;20.48;;;3.10;72.70;;;;;;5046019;28;20025;-75
2021/01/08 08:58:15;;;;;;;29.60;19.70;;;3.10;72.70;;;;;;5046028;28;20043;-77
2021/01/08 09:00:42;;;;;;;25.25;19.17;;;3.10;72.70;;;;;;5045504;28;20360;-78
2021/01/08 09:03:32;;;;;;;29.15;19.08;;;3.10;72.60;;;;;;5045692;28;20060;-78
2021/01/08 09:05:58;;;;;;;27.50;18.95;;;3.10;72.60;;;;;;5044946;28;20131;-78
2021/01/08 09:08:36;;;;;;;24.33;19.30;;;3.10;72.60;;;;;;5046116;28;20120;-78
2021/01/08 09:11:08;;;;;;;27.98;20.23;;;3.20;72.80;;;;;;5046527;28;20033;-77
2021/01/08 09:13:58;;;;;;;25.52;18.95;;;3.20;72.80;;;;;;5044773;28;20396;-77
2021/01/08 09:16:33;;;;;;;28.40;19.38;;;3.20;72.80;;;;;;5046208;28;20591;-76
2021/01/08 09:19:08;;;;;;;28.50;20.40;;;3.30;72.90;;;;;;5044634;28;20434;-78
2021/01/08 09:21:42;;;;;;;27.35;19.33;;;3.30;72.90;;;;;;5045992;28;20496;-77
2021/01/08 09:24:13;;;;;;;;;;;3.40;73.10;;;;;;5046632;28;20029;-76
2021/01/08 09:26:43;;;;;;;29.83;19.75;;;3.40;73.00;;;;;;5045646;28;19913;-77
2021/01/08 09:29:10;;;;;;;26.67;19.42;;;3.50;73.00;;;;;;5044527;28;20056;-77
2021/01/08 09:31:40;;;;;;;28.88;20.88;;;3.50;73.00;;;;;;5045786;28;20032;-77
2021/01/08 09:34:07;;;;;;;29.27;20.30;;;3.60;73.10;;;;;;5045839;28;20136;-76
2021/01/08 09:36:35;;;;;;;28.88;20.23;;;3.60;73.10;;;;;;5045657;28;20036;-77
2021/01/08 09:39:09;;;;;;;28.63;20.25;;;3.70;73.20;;;;;;5046191;28;20125;-77
2021/01/08 09:41:37;;;;;;;26.92;20.85;;;3.70;73.20;;;;;;5045769;28;20028;-77
2021/01/08 09:44:05;;;;;;;26.80;20.23;;;3.70;73.20;;;;;;5043518;28;20037;-77
2021/01/08 09:46:32;;;;;;;29.58;21.20;;;3.80;73.30;;;;;;5045504;28;20028;-76
2021/01/08 09:49:07;;;;;;;26.20;19.92;;;3.80;73.30;;;;;;5044300;28;20101;-77
2021/01/08 09:51:33;;;;;;;28.65;20.08;;;3.90;73.50;;;;;;5043370;28;20085;-78
2021/01/08 09:53:59;;;;;;;26.67;20.35;;;3.90;73.40;;;;;;5043659;28;20528;-77
2021/01/08 09:56:25;;;;;;;26.70;19.73;;;3.90;73.40;;;;;;5045277;28;20452;-74
2021/01/08 09:59:16;;;;;;;27.90;20.25;;;4.00;73.60;;;;;;5045566;28;20032;-75
2021/01/08 10:02:00;;;;;;;28.45;19.55;;;4.00;73.60;;;;;;5027674;28;20068;-75
2021/01/08 10:04:28;;;;;;;26.60;19.25;;;4.10;73.70;;;;;;5045099;28;20033;-77
2021/01/08 10:06:59;;;;;;;26.40;20.02;;;4.10;73.70;;;;;;5045881;28;20338;-76
2021/01/08 10:09:25;;;;;;;28.92;20.75;;;4.10;73.60;;;;;;5044136;28;20029;-75
2021/01/08 10:12:01;;;;;;;26.13;18.80;;;4.10;73.60;;;;;;5045822;28;20099;-75
2021/01/08 10:14:33;;;;;;;30.77;20.60;;;4.20;73.80;;;;;;5045567;28;20115;-77
2021/01/08 10:17:13;;;;;;;26.45;20.25;;;4.20;73.70;;;;;;5045296;28;20063;-76
2021/01/08 10:19:41;;;;;;;28.70;21.20;;;4.20;73.70;;;;;;5044015;28;20040;-76
2021/01/08 10:22:07;;;;;;;28.92;21.00;;;4.20;73.70;;;;;;5044982;28;20021;-77
2021/01/08 10:24:33;;;;;;;26.02;19.50;;;4.30;73.80;;;;;;5044822;28;20373;-77
2021/01/08 10:27:02;;;;;;;29.48;21.83;;;4.30;73.90;;;;;;5044778;28;20116;-77
2021/01/08 10:29:34;;;;;;;28.50;21.27;;;4.30;73.90;;;;;;5043612;28;20067;-77
2021/01/08 10:32:06;;;;;;;30.27;21.25;;;4.40;74.00;;;;;;5045041;28;20091;-79
2021/01/08 10:34:39;;;;;;;28.20;21.42;;;4.40;74.00;;;;;;5044131;28;20143;-81
2021/01/08 10:37:14;;;;;;;26.95;17.92;;;4.40;74.00;;;;;;5044661;28;20103;-77
2021/01/08 10:39:40;;;;;;;31.33;20.38;;;4.40;74.10;;;;;;5045289;28;20025;-78
2021/01/08 10:42:06;;;;;;;26.15;19.55;;;4.50;74.30;;;;;;5044615;28;20196;-79
2021/01/08 10:44:32;;;;;;;28.95;20.48;;;4.60;74.50;;;;;;5044522;28;20021;-78
2021/01/08 10:46:58;;;;;;;30.48;22.10;;;4.60;74.50;;;;;;5044420;28;20029;-76
2021/01/08 10:49:24;;;;;;;29.85;21.42;;;4.70;74.70;;;;;;5044401;28;20045;-76
2021/01/08 10:51:50;;;;;;;29.30;19.92;;;4.80;74.80;;;;;;5044413;28;20090;-76
2021/01/08 10:54:18;;;;;;;28.38;20.40;;;4.80;74.70;;;;;;5044004;28;20486;-77
2021/01/08 10:56:44;;;;;;;28.70;20.73;;;4.90;74.80;;;;;;5044180;28;20040;-77
2021/01/08 10:59:11;;;;;;;28.15;21.15;;;4.90;74.70;;;;;;5043811;28;20031;-76
2021/01/08 11:01:44;;;;;;;31.65;21.17;;;5.00;74.90;;;;;;5044098;28;20213;-75
2021/01/08 11:04:11;;;;;;;27.02;20.30;;;4.90;74.60;;;;;;5043268;28;20084;-76
2021/01/08 11:06:41;;;;;;;26.23;18.55;;;5.00;74.80;;;;;;5043579;28;20120;-76
2021/01/08 11:09:07;;;;;;;28.73;20.95;;;5.00;74.80;;;;;;5042862;28;20025;-76
2021/01/08 11:11:34;;;;;;;27.48;21.58;;;5.00;74.70;;;;;;5044215;28;20040;-76
2021/01/08 11:14:01;;;;;;;30.13;22.08;;;5.00;74.80;;;;;;5042705;28;20036;-78
2021/01/08 11:16:27;;;;;;;31.25;20.75;;;5.00;74.70;;;;;;5042521;28;20503;-81
2021/01/08 11:18:56;;;;;;;26.77;20.00;;;5.00;75.20;;;;;;5044045;28;20035;-81
2021/01/08 11:21:22;;;;;;;25.95;20.15;;;5.00;74.70;;;;;;5026942;28;20253;-79
2021/01/08 11:23:49;;;;;;;31.13;21.05;;;5.00;74.70;;;;;;5044835;28;20218;-79
2021/01/08 11:26:31;;;;;;;26.20;19.52;;;5.00;74.70;;;;;;5042917;28;20119;-79
2021/01/08 11:28:58;;;;;;;30.60;21.13;;;5.00;74.60;;;;;;5043687;28;20563;-78
2021/01/08 11:31:34;;;;;;;25.25;19.35;;;5.10;74.80;;;;;;5044337;28;20439;-79
2021/01/08 11:34:02;;;;;;;35.78;23.17;;;5.10;74.80;;;;;;5044529;28;20516;-79
2021/01/08 11:36:28;;;;;;;29.25;20.05;;;5.10;74.80;;;;;;5029366;28;20499;-81
2021/01/08 11:38:54;;;;;;;28.35;21.15;;;5.10;74.80;;;;;;5044358;28;20029;-80
2021/01/08 11:41:21;;;;;;;30.08;21.20;;;5.10;74.80;;;;;;5042652;28;20438;-79
2021/01/08 11:43:48;;;;;;;26.67;21.52;;;5.10;74.80;;;;;;5045544;28;20028;-79
2021/01/08 11:46:19;;;;;;;27.83;20.90;;;5.10;74.70;;;;;;5048773;28;20064;-78
2021/01/08 11:48:46;;;;;;;30.10;22.13;;;5.10;74.70;;;;;;5043924;28;20096;-78
2021/01/08 11:51:15;;;;;;;29.45;20.90;;;5.10;74.70;;;;;;5043987;28;20044;-80
2021/01/08 11:53:46;;;;;;;26.70;21.20;;;5.10;74.60;;;;;;5029839;28;20029;-81
2021/01/08 11:56:16;;;;;;;24.70;20.23;;;5.10;74.60;;;;;;5044066;28;20095;-81
2021/01/08 11:58:44;;;;;;;31.15;20.67;;;5.10;74.60;;;;;;5043858;28;20227;-80
2021/01/08 12:01:10;;;;;;;27.08;20.98;;;5.10;74.60;;;;;;5043322;28;20033;-78
2021/01/08 12:03:38;;;;;;;29.38;21.15;;;5.10;74.60;;;;;;5025278;28;20036;-80
2021/01/08 12:06:06;;;;;;;27.15;19.55;;;5.10;74.60;;;;;;5043928;28;20491;-79
2021/01/08 12:08:32;;;;;;;29.73;21.65;;;5.10;74.60;;;;;;5044210;28;20072;-80
2021/01/08 12:11:00;;;;;;;32.92;21.92;;;5.10;74.60;;;;;;5042752;28;20029;-79
2021/01/08 12:13:25;;;;;;;33.15;21.67;;;5.10;74.60;;;;;;5043365;28;20029;-79
2021/01/08 12:15:52;;;;;;;28.90;22.52;;;5.10;74.60;;;;;;5046870;28;20498;-79
2021/01/08 12:18:19;;;;;;;27.20;21.55;;;5.10;74.60;;;;;;5047453;28;20124;-80
2021/01/08 12:20:48;;;;;;;27.58;21.48;;;5.10;74.60;;;;;;5047882;28;20449;-79
2021/01/08 12:23:14;;;;;;;28.25;20.95;;;5.10;74.50;;;;;;5046376;28;20538;-79
2021/01/08 12:25:41;;;;;;;28.70;21.13;;;5.10;74.50;;;;;;5045412;28;20033;-78
2021/01/08 12:28:11;;;;;;;27.92;20.52;;;5.10;74.50;;;;;;5046174;28;20112;-76
2021/01/08 12:30:38;;;;;;;28.00;22.05;;;5.10;74.50;;;;;;5045025;28;20108;-77
2021/01/08 12:33:05;;;;;;;28.15;22.73;;;5.10;74.50;;;;;;5047056;28;20498;-77
2021/01/08 12:35:31;;;;;;;27.25;21.40;;;5.10;74.50;;;;;;5046143;28;20331;-76
2021/01/08 12:37:58;;;;;;;25.35;20.02;;;5.10;74.50;;;;;;5036690;28;20032;-77
2021/01/08 12:40:25;;;;;;;32.58;23.25;;;5.10;74.50;;;;;;5046436;28;20037;-77
2021/01/08 12:42:55;;;;;;;30.35;21.15;;;5.10;74.40;;;;;;5047375;28;20032;-77
2021/01/08 12:45:22;;;;;;;28.70;22.50;;;5.10;74.40;;;;;;5040707;28;20140;-77
2021/01/08 12:47:48;;;;;;;28.80;21.27;;;5.10;74.40;;;;;;5046117;28;20045;-78